Glory Ocean — 9VDE7 — position and weather

sailwx.info

Track history (hours):
 
Tides and Currents Weather Stations Pressure Air Temp Water Temp Dewpoint Dewpoint Depression Visibility Wind Speed Wind Dir Waves Ship Positions

Glory Ocean

Last reported at 2015-Jul-07 12:08 UTC. Time now 2015-Jul-29 22:04 UTC.
Position N 27°42' W 015°22'.
Warning: this ship's position is 22 days out of date.

Length 139 m; draft 9.5 m.

Type: Cargo ship. MMSI: 564700000.

Date/timePositionNaut miles runAvg speedWind from/ knotsBaromVisibWave heightAir tempDewpointWater temp
2015-Jul-07 12:08N 27°42' W 015°22'711.6
2015-Jul-07 11:33N 27°45' W 015°15'1212.2
2015-Jul-07 10:33N 27°58' W 015°15'1111.1
2015-Jul-07 09:33N 28°07' W 015°22'2 1.6
2015-Jul-07 08:29N 28°07' W 015°24'0 0.0
2015-Jul-07 07:29N 28°07' W 015°24'0 0.0
2015-Jul-07 06:29N 28°07' W 015°24'0 0.0
2015-Jul-07 05:29N 28°07' W 015°24'0 0.0
2015-Jul-07 04:29N 28°07' W 015°24'0 0.0
2015-Jul-07 03:29N 28°07' W 015°24'1 1.5
2015-Jul-07 02:33N 28°07' W 015°23'6 6.0
2015-Jul-07 01:33N 28°11' W 015°18'10 9.8
2015-Jul-07 00:33N 28°19' W 015°11'1010.5
2015-Jul-06 23:33N 28°26' W 015°02'1110.7
2015-Jul-06 22:33N 28°34' W 014°54'1110.7
2015-Jul-06 21:33N 28°42' W 014°46'1110.7
2015-Jul-06 20:33N 28°50' W 014°38'1110.7
2015-Jul-06 19:33N 28°58' W 014°29'1111.0
2015-Jul-06 18:33N 29°06' W 014°21'1110.7
2015-Jul-06 17:33N 29°13' W 014°12'1110.3
2015-Jul-06 16:27N 29°21' W 014°03'8 9.3
2015-Jul-06 15:33N 29°28' W 013°56'9 9.0
2015-Jul-06 14:33N 29°35' W 013°50'1010.2
2015-Jul-06 13:33N 29°43' W 013°43'1111.1
2015-Jul-06 12:33N 29°50' W 013°33'1111.3
2015-Jul-06 11:33N 29°58' W 013°24'23 7.7
2015-Jul-06 08:33N 30°16' W 013°06'2311.0
2015-Jul-06 06:26N 30°33' W 012°48'910.6
2015-Jul-06 05:33N 30°40' W 012°41'11311.3
2015-Jul-05 19:30N 32°03' W 011°11'1111.4
2015-Jul-05 18:32N 32°11' W 011°02'4711.4
2015-Jul-05 14:24N 32°45' W 010°24'1211.3
2015-Jul-05 13:19N 32°54' W 010°14'3411.2
2015-Jul-05 10:17N 33°19' W 009°46'8811.0
2015-Jul-05 02:14N 34°19' W 008°28'711.1
2015-Jul-05 01:33N 34°24' W 008°21'1111.1
2015-Jul-05 00:32N 34°31' W 008°11'1111.4
2015-Jul-04 23:33N 34°39' W 008°00'1211.2
2015-Jul-04 22:28N 34°47' W 007°49'1011.2
2015-Jul-04 21:33N 34°54' W 007°40'1211.3
2015-Jul-04 20:32N 35°01' W 007°30'1111.6
2015-Jul-04 19:33N 35°09' W 007°19'10411.1
2015-Jul-04 10:11N 35°60' W 005°28'710.3
2015-Jul-04 09:33N 36°02' W 005°21'1111.2
2015-Jul-04 08:33N 36°09' W 005°10'  
2015-Jul-01 05:28N 36°03' W 005°12'1213.1
2015-Jul-01 04:32N 35°58' W 005°26'1813.6
2015-Jul-01 03:12N 35°55' W 005°48'812.8
2015-Jul-01 02:33N 35°54' W 005°58'1412.3
2015-Jul-01 01:26N 35°53' W 006°15'1111.4
2015-Jul-01 00:31N 35°46' W 006°25'1212.1
2015-Jun-30 23:30N 35°38' W 006°36'1311.9
2015-Jun-30 22:25N 35°29' W 006°48'1011.8
2015-Jun-30 21:33N 35°23' W 006°58'1211.8
2015-Jun-30 20:34N 35°15' W 007°09'1211.9
2015-Jun-30 19:33N 35°07' W 007°20'1412.1
2015-Jun-30 18:24N 34°58' W 007°32'1011.7
2015-Jun-30 17:32N 34°51' W 007°42'1111.6
2015-Jun-30 16:34N 34°44' W 007°52'1211.5
2015-Jun-30 15:31N 34°36' W 008°03'2311.7
2015-Jun-30 13:32N 34°20' W 008°24'1111.6
2015-Jun-30 12:33N 34°13' W 008°35'1211.7
2015-Jun-30 11:33N 34°05' W 008°45'1211.8
2015-Jun-30 10:33N 33°56' W 008°55'1412.0
2015-Jun-30 09:23N 33°48' W 009°08'1212.1
2015-Jun-30 08:23N 33°40' W 009°19'1112.3
2015-Jun-30 07:32N 33°33' W 009°29'1212.3
2015-Jun-30 06:33N 33°25' W 009°40'1212.1
2015-Jun-30 05:32N 33°16' W 009°50'1211.8
2015-Jun-30 04:33N 33°08' W 009°59'1211.9
2015-Jun-30 03:33N 32°59' W 010°09'1211.7
2015-Jun-30 02:33N 32°50' W 010°18'1211.8
2015-Jun-30 01:33N 32°42' W 010°28'1211.6
2015-Jun-30 00:33N 32°33' W 010°37'1211.6
2015-Jun-29 23:33N 32°25' W 010°47'1211.6
2015-Jun-29 22:32N 32°16' W 010°56'1111.4
2015-Jun-29 21:33N 32°08' W 011°05'1111.3
2015-Jun-29 20:32N 31°59' W 011°14'1111.0
2015-Jun-29 19:33N 31°51' W 011°23'1111.0
2015-Jun-29 18:34N 31°43' W 011°32'1211.3
2015-Jun-29 17:30N 31°35' W 011°41'1111.3
2015-Jun-29 16:33N 31°27' W 011°50'1111.5
2015-Jun-29 15:33N 31°18' W 011°59'1211.6
2015-Jun-29 14:33N 31°10' W 012°08'1411.8
2015-Jun-29 13:20N 30°59' W 012°20'1311.8
2015-Jun-29 12:12N 30°49' W 012°30'811.9
2015-Jun-29 11:33N 30°44' W 012°36'1111.5
2015-Jun-29 10:33N 30°35' W 012°45'1211.6
2015-Jun-29 09:33N 30°27' W 012°54'1311.8
2015-Jun-29 08:27N 30°17' W 013°05'9111.5
2015-Jun-29 00:32N 29°11' W 014°16'1511.2
2015-Jun-28 23:14N 28°60' W 014°27'810.9
2015-Jun-28 22:31N 28°54' W 014°33'1611.0
2015-Jun-28 21:06N 28°43' W 014°45'1911.6
2015-Jun-28 19:29N 28°29' W 014°60'1111.7
2015-Jun-28 18:33N 28°21' W 015°08'1211.6
2015-Jun-28 17:33N 28°13' W 015°17'9 8.6
2015-Jun-28 16:33N 28°07' W 015°24'0 0.0
2015-Jun-28 15:31N 28°07' W 015°24'0 0.0
2015-Jun-28 14:31N 28°07' W 015°24'0 0.0
2015-Jun-28 13:31N 28°07' W 015°24'0 0.0
2015-Jun-28 12:31N 28°07' W 015°24'0 0.2
2015-Jun-28 11:33N 28°07' W 015°24'7 7.1
2015-Jun-28 10:33N 28°03' W 015°18'1010.1
2015-Jun-28 09:33N 27°53' W 015°15'1010.4
2015-Jun-28 08:33N 27°43' W 015°19'  
Track history (hours):
 
Tides and Currents Weather Stations Pressure Air Temp Water Temp Dewpoint Dewpoint Depression Visibility Wind Speed Wind Dir Waves Ship Positions

Glory Ocean

Last reported at 2015-Jul-07 12:08 UTC. Time now 2015-Jul-29 22:04 UTC.
Position N 27°42' W 015°22'.
Warning: this ship's position is 22 days out of date.

Length 139 m; draft 9.5 m.

Type: Cargo ship. MMSI: 564700000.

Date/timePositionNaut miles runAvg speedWind from/ knotsBaromVisibWave heightAir tempDewpointWater temp
2015-Jul-07 12:08N 27°42' W 015°22'711.6
2015-Jul-07 11:33N 27°45' W 015°15'1212.2
2015-Jul-07 10:33N 27°58' W 015°15'1111.1
2015-Jul-07 09:33N 28°07' W 015°22'2 1.6
2015-Jul-07 08:29N 28°07' W 015°24'0 0.0
2015-Jul-07 07:29N 28°07' W 015°24'0 0.0
2015-Jul-07 06:29N 28°07' W 015°24'0 0.0
2015-Jul-07 05:29N 28°07' W 015°24'0 0.0
2015-Jul-07 04:29N 28°07' W 015°24'0 0.0
2015-Jul-07 03:29N 28°07' W 015°24'1 1.5
2015-Jul-07 02:33N 28°07' W 015°23'6 6.0
2015-Jul-07 01:33N 28°11' W 015°18'10 9.8
2015-Jul-07 00:33N 28°19' W 015°11'1010.5
2015-Jul-06 23:33N 28°26' W 015°02'1110.7
2015-Jul-06 22:33N 28°34' W 014°54'1110.7
2015-Jul-06 21:33N 28°42' W 014°46'1110.7
2015-Jul-06 20:33N 28°50' W 014°38'1110.7
2015-Jul-06 19:33N 28°58' W 014°29'1111.0
2015-Jul-06 18:33N 29°06' W 014°21'1110.7
2015-Jul-06 17:33N 29°13' W 014°12'1110.3
2015-Jul-06 16:27N 29°21' W 014°03'8 9.3
2015-Jul-06 15:33N 29°28' W 013°56'9 9.0
2015-Jul-06 14:33N 29°35' W 013°50'1010.2
2015-Jul-06 13:33N 29°43' W 013°43'1111.1
2015-Jul-06 12:33N 29°50' W 013°33'1111.3
2015-Jul-06 11:33N 29°58' W 013°24'23 7.7
2015-Jul-06 08:33N 30°16' W 013°06'2311.0
2015-Jul-06 06:26N 30°33' W 012°48'910.6
2015-Jul-06 05:33N 30°40' W 012°41'11311.3
2015-Jul-05 19:30N 32°03' W 011°11'1111.4
2015-Jul-05 18:32N 32°11' W 011°02'4711.4
2015-Jul-05 14:24N 32°45' W 010°24'1211.3
2015-Jul-05 13:19N 32°54' W 010°14'3411.2
2015-Jul-05 10:17N 33°19' W 009°46'8811.0
2015-Jul-05 02:14N 34°19' W 008°28'711.1
2015-Jul-05 01:33N 34°24' W 008°21'1111.1
2015-Jul-05 00:32N 34°31' W 008°11'1111.4
2015-Jul-04 23:33N 34°39' W 008°00'1211.2
2015-Jul-04 22:28N 34°47' W 007°49'1011.2
2015-Jul-04 21:33N 34°54' W 007°40'1211.3
2015-Jul-04 20:32N 35°01' W 007°30'1111.6
2015-Jul-04 19:33N 35°09' W 007°19'10411.1
2015-Jul-04 10:11N 35°60' W 005°28'710.3
2015-Jul-04 09:33N 36°02' W 005°21'1111.2
2015-Jul-04 08:33N 36°09' W 005°10'  
2015-Jul-01 05:28N 36°03' W 005°12'1213.1
2015-Jul-01 04:32N 35°58' W 005°26'1813.6
2015-Jul-01 03:12N 35°55' W 005°48'812.8
2015-Jul-01 02:33N 35°54' W 005°58'1412.3
2015-Jul-01 01:26N 35°53' W 006°15'1111.4
2015-Jul-01 00:31N 35°46' W 006°25'1212.1
2015-Jun-30 23:30N 35°38' W 006°36'1311.9
2015-Jun-30 22:25N 35°29' W 006°48'1011.8
2015-Jun-30 21:33N 35°23' W 006°58'1211.8
2015-Jun-30 20:34N 35°15' W 007°09'1211.9
2015-Jun-30 19:33N 35°07' W 007°20'1412.1
2015-Jun-30 18:24N 34°58' W 007°32'1011.7
2015-Jun-30 17:32N 34°51' W 007°42'1111.6
2015-Jun-30 16:34N 34°44' W 007°52'1211.5
2015-Jun-30 15:31N 34°36' W 008°03'2311.7
2015-Jun-30 13:32N 34°20' W 008°24'1111.6
2015-Jun-30 12:33N 34°13' W 008°35'1211.7
2015-Jun-30 11:33N 34°05' W 008°45'1211.8
2015-Jun-30 10:33N 33°56' W 008°55'1412.0
2015-Jun-30 09:23N 33°48' W 009°08'1212.1
2015-Jun-30 08:23N 33°40' W 009°19'1112.3
2015-Jun-30 07:32N 33°33' W 009°29'1212.3
2015-Jun-30 06:33N 33°25' W 009°40'1212.1
2015-Jun-30 05:32N 33°16' W 009°50'1211.8
2015-Jun-30 04:33N 33°08' W 009°59'1211.9
2015-Jun-30 03:33N 32°59' W 010°09'1211.7
2015-Jun-30 02:33N 32°50' W 010°18'1211.8
2015-Jun-30 01:33N 32°42' W 010°28'1211.6
2015-Jun-30 00:33N 32°33' W 010°37'1211.6
2015-Jun-29 23:33N 32°25' W 010°47'1211.6
2015-Jun-29 22:32N 32°16' W 010°56'1111.4
2015-Jun-29 21:33N 32°08' W 011°05'1111.3
2015-Jun-29 20:32N 31°59' W 011°14'1111.0
2015-Jun-29 19:33N 31°51' W 011°23'1111.0
2015-Jun-29 18:34N 31°43' W 011°32'1211.3
2015-Jun-29 17:30N 31°35' W 011°41'1111.3
2015-Jun-29 16:33N 31°27' W 011°50'1111.5
2015-Jun-29 15:33N 31°18' W 011°59'1211.6
2015-Jun-29 14:33N 31°10' W 012°08'1411.8
2015-Jun-29 13:20N 30°59' W 012°20'1311.8
2015-Jun-29 12:12N 30°49' W 012°30'811.9
2015-Jun-29 11:33N 30°44' W 012°36'1111.5
2015-Jun-29 10:33N 30°35' W 012°45'1211.6
2015-Jun-29 09:33N 30°27' W 012°54'1311.8
2015-Jun-29 08:27N 30°17' W 013°05'9111.5
2015-Jun-29 00:32N 29°11' W 014°16'1511.2
2015-Jun-28 23:14N 28°60' W 014°27'810.9
2015-Jun-28 22:31N 28°54' W 014°33'1611.0
2015-Jun-28 21:06N 28°43' W 014°45'1911.6
2015-Jun-28 19:29N 28°29' W 014°60'1111.7
2015-Jun-28 18:33N 28°21' W 015°08'1211.6
2015-Jun-28 17:33N 28°13' W 015°17'9 8.6
2015-Jun-28 16:33N 28°07' W 015°24'0 0.0
2015-Jun-28 15:31N 28°07' W 015°24'0 0.0
2015-Jun-28 14:31N 28°07' W 015°24'0 0.0
2015-Jun-28 13:31N 28°07' W 015°24'0 0.0
2015-Jun-28 12:31N 28°07' W 015°24'0 0.2
2015-Jun-28 11:33N 28°07' W 015°24'7 7.1
2015-Jun-28 10:33N 28°03' W 015°18'1010.1
2015-Jun-28 09:33N 27°53' W 015°15'1010.4
2015-Jun-28 08:33N 27°43' W 015°19'  

Dump ship's entire track history